CheckWX is a tool to help pilots better visualize weather data.  It is not intended as a substitute for an official pre-flight weather briefing.

07:13:21 UTC

KCSV METAR
Crossville Memorial-Whitson Field Airport
Crossville, Tennessee, USA
Current

20 mins ago

KCSV 230653Z AUTO 22003KT 10SM CLR 18/11 A3015 RMK AO2 SLP189 T01780111
Observed
Sep-23 @ 06:53 UTC
Wind
  • 220° at 3 KTS
Visibility
10 SM
Flight Rules
VFR
Cloud Levels
  • Clear skies
Temperature
18°C / 64°F
Dewpoint
11°C / 52°F
Humidity
64%
Altimeter
30.15" Hg
Pressure
1021.02 hPa
Previous

1 hour ago

KCSV 230553Z AUTO 00000KT 10SM CLR 16/12 A3015 RMK AO2 SLP192 T01610117 10233 20156 402890133 58004
Observed
Sep-23 @ 05:53 UTC
Visibility
10 SM
Flight Rules
VFR
Cloud Levels
  • Clear skies
Temperature
16°C / 61°F
Dewpoint
12°C / 54°F
Humidity
77%
Altimeter
30.15" Hg
Pressure
1021.02 hPa
Previous

2 hours ago

KCSV 230453Z AUTO 00000KT 10SM CLR 18/12 A3015 RMK AO2 SLP191 T01780117
Observed
Sep-23 @ 04:53 UTC
Visibility
10 SM
Flight Rules
VFR
Cloud Levels
  • Clear skies
Temperature
18°C / 64°F
Dewpoint
12°C / 54°F
Humidity
68%
Altimeter
30.15" Hg
Pressure
1021.02 hPa